Sanko Commander — A8DU6 — position and weather

sailwx.info

Track history (hours):
 
Tides and Currents Weather Stations Pressure Air Temp Water Temp Dewpoint Dewpoint Depression Visibility Wind Speed Wind Dir Waves Ship Positions

Sanko Commander

Last reported at 2018-Jun-25 07:59 UTC. Time now 2018-Jun-25 08:19 UTC.
Position N 29°13' W 094°41'.

Length 228 m; draft 7.5 m.

Type: Tanker. MMSI: 636012163.

Date/timePositionNaut miles runAvg speedWind from/ knotsBaromVisibWave heightAir tempDewpointWater temp
2018-Jun-25 07:59N 29°13' W 094°41'0 0.0
2018-Jun-25 07:29N 29°13' W 094°41'0 0.0
2018-Jun-25 06:59N 29°13' W 094°41'0 0.0
2018-Jun-25 06:20N 29°13' W 094°41'0 0.0
2018-Jun-25 05:59N 29°13' W 094°41'0 0.0
2018-Jun-25 05:29N 29°13' W 094°41'0 0.0
2018-Jun-25 04:59N 29°13' W 094°41'0 0.0
2018-Jun-25 04:26N 29°13' W 094°41'0 0.0
2018-Jun-25 03:59N 29°13' W 094°41'0 0.0
2018-Jun-25 03:29N 29°13' W 094°41'0 0.0
2018-Jun-25 02:59N 29°13' W 094°41'0 0.0
2018-Jun-25 02:26N 29°13' W 094°41'0 0.0
2018-Jun-25 01:59N 29°13' W 094°41'0 0.0
2018-Jun-25 01:29N 29°13' W 094°41'0 0.0
2018-Jun-25 00:59N 29°13' W 094°41'0 0.0
2018-Jun-25 00:26N 29°13' W 094°41'0 0.0
2018-Jun-24 23:59N 29°13' W 094°41'0 0.0
2018-Jun-24 23:29N 29°13' W 094°41'0 0.0
2018-Jun-24 22:53N 29°13' W 094°41'0 0.1
2018-Jun-24 22:26N 29°13' W 094°41'0 0.0
2018-Jun-24 21:47N 29°13' W 094°41'0 0.0
2018-Jun-24 21:29N 29°13' W 094°41'0 0.0
2018-Jun-24 20:59N 29°13' W 094°41'0 0.1
2018-Jun-24 20:26N 29°13' W 094°41'0 0.0
2018-Jun-24 19:59N 29°13' W 094°41'0 0.0
2018-Jun-24 19:29N 29°13' W 094°41'0 0.0
2018-Jun-24 18:59N 29°13' W 094°41'0 0.0
2018-Jun-24 18:29N 29°13' W 094°41'0 0.0
2018-Jun-24 17:59N 29°13' W 094°41'0 0.0
2018-Jun-24 17:29N 29°13' W 094°41'0 0.0
2018-Jun-24 16:56N 29°13' W 094°41'0 0.0
2018-Jun-24 16:29N 29°13' W 094°41'0 0.0
2018-Jun-24 16:01N 29°13' W 094°41'0 0.3
2018-Jun-24 15:31N 29°13' W 094°41'9 5.5
2018-Jun-24 13:57N 29°21' W 094°43'0 0.0
2018-Jun-23 22:52N 29°21' W 094°43'0 0.0
2018-Jun-23 22:28N 29°21' W 094°43'0 0.0
2018-Jun-23 21:58N 29°21' W 094°43'0 0.1
2018-Jun-23 21:28N 29°21' W 094°43'0 0.1
2018-Jun-23 20:58N 29°21' W 094°43'0 0.1
2018-Jun-23 20:28N 29°21' W 094°43'0 0.0
2018-Jun-23 19:55N 29°21' W 094°43'0 0.1
2018-Jun-23 19:25N 29°21' W 094°43'0 0.0
2018-Jun-23 18:58N 29°21' W 094°43'0 0.1
2018-Jun-23 18:13N 29°21' W 094°43'0 0.1
2018-Jun-23 17:46N 29°21' W 094°43'0 0.0
2018-Jun-23 17:25N 29°21' W 094°43'0 0.0
2018-Jun-23 16:58N 29°21' W 094°43'0 0.0
2018-Jun-23 16:28N 29°21' W 094°43'0 0.0
2018-Jun-23 15:58N 29°21' W 094°43'1 1.2
2018-Jun-23 15:29N 29°21' W 094°43'4 8.7
2018-Jun-23 15:00N 29°19' W 094°38'5 9.5
2018-Jun-23 14:30N 29°15' W 094°35'5 8.9
2018-Jun-23 14:00N 29°11' W 094°37'0 0.3
2018-Jun-23 13:26N 29°11' W 094°37'0 0.0
2018-Jun-23 12:59N 29°11' W 094°37'0 0.0
2018-Jun-23 12:23N 29°11' W 094°37'0 0.0
2018-Jun-23 11:53N 29°11' W 094°37'0 0.0
2018-Jun-23 11:23N 29°11' W 094°37'0 0.0
2018-Jun-23 10:59N 29°11' W 094°37'0 0.0
2018-Jun-23 09:38N 29°11' W 094°37'0 0.0
2018-Jun-23 09:26N 29°11' W 094°37'0 0.0
2018-Jun-23 08:59N 29°11' W 094°37'0 0.0
2018-Jun-23 08:26N 29°11' W 094°37'0 0.0
2018-Jun-23 05:41N 29°11' W 094°37'0 0.0
2018-Jun-23 05:20N 29°11' W 094°37'0 0.0
2018-Jun-23 04:56N 29°11' W 094°37'0 0.0
2018-Jun-23 04:17N 29°11' W 094°37'0 0.0
2018-Jun-23 03:59N 29°11' W 094°37'0 0.1
2018-Jun-23 03:23N 29°11' W 094°37'0 0.0
2018-Jun-23 02:47N 29°11' W 094°37'0 0.1
2018-Jun-23 02:29N 29°11' W 094°37'0 0.0
2018-Jun-23 01:56N 29°11' W 094°37'0 0.0
2018-Jun-23 01:29N 29°11' W 094°37'0 0.0
2018-Jun-23 00:53N 29°11' W 094°37'0 0.0
2018-Jun-23 00:29N 29°11' W 094°37'0 0.0
2018-Jun-22 23:50N 29°11' W 094°37'0 0.1
2018-Jun-22 23:29N 29°11' W 094°37'0 0.2
2018-Jun-22 23:00N 29°11' W 094°37'0 0.2
2018-Jun-22 22:30N 29°11' W 094°37'2 3.1
2018-Jun-22 21:52N 29°09' W 094°36'3 7.8
2018-Jun-22 21:29N 29°06' W 094°36'5 9.6
2018-Jun-22 21:00N 29°02' W 094°35'3 6.2
2018-Jun-22 20:31N 29°00' W 094°38'611.6
2018-Jun-22 20:00N 28°57' W 094°44'612.6
2018-Jun-22 19:30N 28°54' W 094°50'612.8
2018-Jun-22 19:01N 28°50' W 094°56'612.3
2018-Jun-22 18:31N 28°47' W 095°02'5 9.8
2018-Jun-22 18:00N 28°47' W 095°08'612.3
2018-Jun-22 17:31N 28°52' W 095°12'5 8.8
2018-Jun-22 17:00N 28°55' W 095°16'3 6.4
2018-Jun-22 16:30N 28°57' W 095°19'  
2018-Jun-19 23:04N 28°57' W 095°19'0 1.9
2018-Jun-19 23:01N 28°57' W 095°19'3 6.8
2018-Jun-19 22:30N 28°54' W 095°16'5 9.2
2018-Jun-19 22:00N 28°51' W 095°12'4 8.6
2018-Jun-19 21:31N 28°49' W 095°08'0 0.6
2018-Jun-19 20:57N 28°49' W 095°08'0 0.0
2018-Jun-19 20:30N 28°49' W 095°08'0 0.0
2018-Jun-19 19:57N 28°49' W 095°08'0 0.0
2018-Jun-19 19:03N 28°49' W 095°08'0 0.1
2018-Jun-19 18:57N 28°49' W 095°08'0 0.0
2018-Jun-19 18:21N 28°49' W 095°08'0 0.0
2018-Jun-19 18:00N 28°49' W 095°08'0 0.0
2018-Jun-19 17:27N 28°49' W 095°08'0 0.0
2018-Jun-19 16:42N 28°49' W 095°08'0 0.0
2018-Jun-19 16:12N 28°49' W 095°08'0 0.0
2018-Jun-19 15:45N 28°49' W 095°08'0 0.0
2018-Jun-19 15:12N 28°49' W 095°08'0 0.0
2018-Jun-19 14:57N 28°49' W 095°08'0 0.0
2018-Jun-19 14:30N 28°49' W 095°08'0 0.0
2018-Jun-19 13:57N 28°49' W 095°08'0 0.0
2018-Jun-19 13:12N 28°49' W 095°08'0 0.0
2018-Jun-19 12:45N 28°49' W 095°08'0 0.0
2018-Jun-19 11:36N 28°49' W 095°08'0 0.1
2018-Jun-19 11:30N 28°49' W 095°08'0 0.2
2018-Jun-19 11:00N 28°49' W 095°08'2 3.6
2018-Jun-19 10:30N 28°47' W 095°08'2 2.8
2018-Jun-19 09:43N 28°45' W 095°06'1 3.4
2018-Jun-19 09:30N 28°45' W 095°06'3 4.3
2018-Jun-19 08:53N 28°43' W 095°04'2 4.8
2018-Jun-19 08:25N 28°41' W 095°02'  
Track history (hours):
 
Tides and Currents Weather Stations Pressure Air Temp Water Temp Dewpoint Dewpoint Depression Visibility Wind Speed Wind Dir Waves Ship Positions

Sanko Commander

Last reported at 2018-Jun-25 07:59 UTC. Time now 2018-Jun-25 08:19 UTC.
Position N 29°13' W 094°41'.

Length 228 m; draft 7.5 m.

Type: Tanker. MMSI: 636012163.

Date/timePositionNaut miles runAvg speedWind from/ knotsBaromVisibWave heightAir tempDewpointWater temp
2018-Jun-25 07:59N 29°13' W 094°41'0 0.0
2018-Jun-25 07:29N 29°13' W 094°41'0 0.0
2018-Jun-25 06:59N 29°13' W 094°41'0 0.0
2018-Jun-25 06:20N 29°13' W 094°41'0 0.0
2018-Jun-25 05:59N 29°13' W 094°41'0 0.0
2018-Jun-25 05:29N 29°13' W 094°41'0 0.0
2018-Jun-25 04:59N 29°13' W 094°41'0 0.0
2018-Jun-25 04:26N 29°13' W 094°41'0 0.0
2018-Jun-25 03:59N 29°13' W 094°41'0 0.0
2018-Jun-25 03:29N 29°13' W 094°41'0 0.0
2018-Jun-25 02:59N 29°13' W 094°41'0 0.0
2018-Jun-25 02:26N 29°13' W 094°41'0 0.0
2018-Jun-25 01:59N 29°13' W 094°41'0 0.0
2018-Jun-25 01:29N 29°13' W 094°41'0 0.0
2018-Jun-25 00:59N 29°13' W 094°41'0 0.0
2018-Jun-25 00:26N 29°13' W 094°41'0 0.0
2018-Jun-24 23:59N 29°13' W 094°41'0 0.0
2018-Jun-24 23:29N 29°13' W 094°41'0 0.0
2018-Jun-24 22:53N 29°13' W 094°41'0 0.1
2018-Jun-24 22:26N 29°13' W 094°41'0 0.0
2018-Jun-24 21:47N 29°13' W 094°41'0 0.0
2018-Jun-24 21:29N 29°13' W 094°41'0 0.0
2018-Jun-24 20:59N 29°13' W 094°41'0 0.1
2018-Jun-24 20:26N 29°13' W 094°41'0 0.0
2018-Jun-24 19:59N 29°13' W 094°41'0 0.0
2018-Jun-24 19:29N 29°13' W 094°41'0 0.0
2018-Jun-24 18:59N 29°13' W 094°41'0 0.0
2018-Jun-24 18:29N 29°13' W 094°41'0 0.0
2018-Jun-24 17:59N 29°13' W 094°41'0 0.0
2018-Jun-24 17:29N 29°13' W 094°41'0 0.0
2018-Jun-24 16:56N 29°13' W 094°41'0 0.0
2018-Jun-24 16:29N 29°13' W 094°41'0 0.0
2018-Jun-24 16:01N 29°13' W 094°41'0 0.3
2018-Jun-24 15:31N 29°13' W 094°41'9 5.5
2018-Jun-24 13:57N 29°21' W 094°43'0 0.0
2018-Jun-23 22:52N 29°21' W 094°43'0 0.0
2018-Jun-23 22:28N 29°21' W 094°43'0 0.0
2018-Jun-23 21:58N 29°21' W 094°43'0 0.1
2018-Jun-23 21:28N 29°21' W 094°43'0 0.1
2018-Jun-23 20:58N 29°21' W 094°43'0 0.1
2018-Jun-23 20:28N 29°21' W 094°43'0 0.0
2018-Jun-23 19:55N 29°21' W 094°43'0 0.1
2018-Jun-23 19:25N 29°21' W 094°43'0 0.0
2018-Jun-23 18:58N 29°21' W 094°43'0 0.1
2018-Jun-23 18:13N 29°21' W 094°43'0 0.1
2018-Jun-23 17:46N 29°21' W 094°43'0 0.0
2018-Jun-23 17:25N 29°21' W 094°43'0 0.0
2018-Jun-23 16:58N 29°21' W 094°43'0 0.0
2018-Jun-23 16:28N 29°21' W 094°43'0 0.0
2018-Jun-23 15:58N 29°21' W 094°43'1 1.2
2018-Jun-23 15:29N 29°21' W 094°43'4 8.7
2018-Jun-23 15:00N 29°19' W 094°38'5 9.5
2018-Jun-23 14:30N 29°15' W 094°35'5 8.9
2018-Jun-23 14:00N 29°11' W 094°37'0 0.3
2018-Jun-23 13:26N 29°11' W 094°37'0 0.0
2018-Jun-23 12:59N 29°11' W 094°37'0 0.0
2018-Jun-23 12:23N 29°11' W 094°37'0 0.0
2018-Jun-23 11:53N 29°11' W 094°37'0 0.0
2018-Jun-23 11:23N 29°11' W 094°37'0 0.0
2018-Jun-23 10:59N 29°11' W 094°37'0 0.0
2018-Jun-23 09:38N 29°11' W 094°37'0 0.0
2018-Jun-23 09:26N 29°11' W 094°37'0 0.0
2018-Jun-23 08:59N 29°11' W 094°37'0 0.0
2018-Jun-23 08:26N 29°11' W 094°37'0 0.0
2018-Jun-23 05:41N 29°11' W 094°37'0 0.0
2018-Jun-23 05:20N 29°11' W 094°37'0 0.0
2018-Jun-23 04:56N 29°11' W 094°37'0 0.0
2018-Jun-23 04:17N 29°11' W 094°37'0 0.0
2018-Jun-23 03:59N 29°11' W 094°37'0 0.1
2018-Jun-23 03:23N 29°11' W 094°37'0 0.0
2018-Jun-23 02:47N 29°11' W 094°37'0 0.1
2018-Jun-23 02:29N 29°11' W 094°37'0 0.0
2018-Jun-23 01:56N 29°11' W 094°37'0 0.0
2018-Jun-23 01:29N 29°11' W 094°37'0 0.0
2018-Jun-23 00:53N 29°11' W 094°37'0 0.0
2018-Jun-23 00:29N 29°11' W 094°37'0 0.0
2018-Jun-22 23:50N 29°11' W 094°37'0 0.1
2018-Jun-22 23:29N 29°11' W 094°37'0 0.2
2018-Jun-22 23:00N 29°11' W 094°37'0 0.2
2018-Jun-22 22:30N 29°11' W 094°37'2 3.1
2018-Jun-22 21:52N 29°09' W 094°36'3 7.8
2018-Jun-22 21:29N 29°06' W 094°36'5 9.6
2018-Jun-22 21:00N 29°02' W 094°35'3 6.2
2018-Jun-22 20:31N 29°00' W 094°38'611.6
2018-Jun-22 20:00N 28°57' W 094°44'612.6
2018-Jun-22 19:30N 28°54' W 094°50'612.8
2018-Jun-22 19:01N 28°50' W 094°56'612.3
2018-Jun-22 18:31N 28°47' W 095°02'5 9.8
2018-Jun-22 18:00N 28°47' W 095°08'612.3
2018-Jun-22 17:31N 28°52' W 095°12'5 8.8
2018-Jun-22 17:00N 28°55' W 095°16'3 6.4
2018-Jun-22 16:30N 28°57' W 095°19'  
2018-Jun-19 23:04N 28°57' W 095°19'0 1.9
2018-Jun-19 23:01N 28°57' W 095°19'3 6.8
2018-Jun-19 22:30N 28°54' W 095°16'5 9.2
2018-Jun-19 22:00N 28°51' W 095°12'4 8.6
2018-Jun-19 21:31N 28°49' W 095°08'0 0.6
2018-Jun-19 20:57N 28°49' W 095°08'0 0.0
2018-Jun-19 20:30N 28°49' W 095°08'0 0.0
2018-Jun-19 19:57N 28°49' W 095°08'0 0.0
2018-Jun-19 19:03N 28°49' W 095°08'0 0.1
2018-Jun-19 18:57N 28°49' W 095°08'0 0.0
2018-Jun-19 18:21N 28°49' W 095°08'0 0.0
2018-Jun-19 18:00N 28°49' W 095°08'0 0.0
2018-Jun-19 17:27N 28°49' W 095°08'0 0.0
2018-Jun-19 16:42N 28°49' W 095°08'0 0.0
2018-Jun-19 16:12N 28°49' W 095°08'0 0.0
2018-Jun-19 15:45N 28°49' W 095°08'0 0.0
2018-Jun-19 15:12N 28°49' W 095°08'0 0.0
2018-Jun-19 14:57N 28°49' W 095°08'0 0.0
2018-Jun-19 14:30N 28°49' W 095°08'0 0.0
2018-Jun-19 13:57N 28°49' W 095°08'0 0.0
2018-Jun-19 13:12N 28°49' W 095°08'0 0.0
2018-Jun-19 12:45N 28°49' W 095°08'0 0.0
2018-Jun-19 11:36N 28°49' W 095°08'0 0.1
2018-Jun-19 11:30N 28°49' W 095°08'0 0.2
2018-Jun-19 11:00N 28°49' W 095°08'2 3.6
2018-Jun-19 10:30N 28°47' W 095°08'2 2.8
2018-Jun-19 09:43N 28°45' W 095°06'1 3.4
2018-Jun-19 09:30N 28°45' W 095°06'3 4.3
2018-Jun-19 08:53N 28°43' W 095°04'2 4.8
2018-Jun-19 08:25N 28°41' W 095°02'  

Dump ship's entire track history